sensor_id;sensor_type;location;lat;lon;timestamp;P1;durP1;ratioP1;P2;durP2;ratioP2
22648;SDS011;11491;41.942;24.220;2023-05-02T00:00:51;13.52;;;11.38;;
22648;SDS011;11491;41.942;24.220;2023-05-02T00:03:18;20.63;;;15.43;;
22648;SDS011;11491;41.942;24.220;2023-05-02T00:05:45;17.38;;;13.18;;
22648;SDS011;11491;41.942;24.220;2023-05-02T00:08:13;19.55;;;12.88;;
22648;SDS011;11491;41.942;24.220;2023-05-02T00:10:40;18.27;;;14.27;;
22648;SDS011;11491;41.942;24.220;2023-05-02T00:13:07;19.08;;;14.68;;
22648;SDS011;11491;41.942;24.220;2023-05-02T00:15:34;22.33;;;19.33;;
22648;SDS011;11491;41.942;24.220;2023-05-02T00:18:00;20.33;;;14.40;;
22648;SDS011;11491;41.942;24.220;2023-05-02T00:20:27;17.08;;;13.23;;
22648;SDS011;11491;41.942;24.220;2023-05-02T00:22:54;18.08;;;13.55;;
22648;SDS011;11491;41.942;24.220;2023-05-02T00:25:22;13.07;;;11.35;;
22648;SDS011;11491;41.942;24.220;2023-05-02T00:27:49;18.27;;;12.95;;
22648;SDS011;11491;41.942;24.220;2023-05-02T00:30:17;14.77;;;11.55;;
22648;SDS011;11491;41.942;24.220;2023-05-02T00:32:45;12.98;;;10.35;;
22648;SDS011;11491;41.942;24.220;2023-05-02T00:35:12;12.02;;;9.57;;
22648;SDS011;11491;41.942;24.220;2023-05-02T00:37:38;12.38;;;9.50;;
22648;SDS011;11491;41.942;24.220;2023-05-02T00:40:05;13.18;;;10.18;;
22648;SDS011;11491;41.942;24.220;2023-05-02T00:42:34;15.45;;;10.88;;
22648;SDS011;11491;41.942;24.220;2023-05-02T00:45:01;14.00;;;10.18;;
22648;SDS011;11491;41.942;24.220;2023-05-02T00:47:31;12.68;;;10.10;;
22648;SDS011;11491;41.942;24.220;2023-05-02T00:49:58;11.48;;;10.13;;
22648;SDS011;11491;41.942;24.220;2023-05-02T00:52:25;11.50;;;10.30;;
22648;SDS011;11491;41.942;24.220;2023-05-02T00:54:53;14.45;;;9.77;;
22648;SDS011;11491;41.942;24.220;2023-05-02T00:57:20;10.15;;;9.02;;
22648;SDS011;11491;41.942;24.220;2023-05-02T00:59:48;11.32;;;8.57;;
22648;SDS011;11491;41.942;24.220;2023-05-02T01:02:21;15.70;;;11.63;;
22648;SDS011;11491;41.942;24.220;2023-05-02T01:04:55;20.92;;;13.63;;
22648;SDS011;11491;41.942;24.220;2023-05-02T01:07:34;22.75;;;14.38;;
22648;SDS011;11491;41.942;24.220;2023-05-02T01:12:47;18.08;;;13.70;;
22648;SDS011;11491;41.942;24.220;2023-05-02T01:15:21;17.42;;;13.25;;
22648;SDS011;11491;41.942;24.220;2023-05-02T01:17:49;17.98;;;13.70;;
22648;SDS011;11491;41.942;24.220;2023-05-02T01:20:18;17.13;;;13.43;;
22648;SDS011;11491;41.942;24.220;2023-05-02T01:22:48;16.67;;;13.30;;
22648;SDS011;11491;41.942;24.220;2023-05-02T01:25:19;18.80;;;13.13;;
22648;SDS011;11491;41.942;24.220;2023-05-02T01:27:57;13.15;;;11.73;;
22648;SDS011;11491;41.942;24.220;2023-05-02T01:30:45;13.40;;;11.23;;
22648;SDS011;11491;41.942;24.220;2023-05-02T01:33:15;11.85;;;10.43;;
22648;SDS011;11491;41.942;24.220;2023-05-02T01:35:44;15.25;;;10.80;;
22648;SDS011;11491;41.942;24.220;2023-05-02T01:38:14;13.18;;;10.80;;
22648;SDS011;11491;41.942;24.220;2023-05-02T01:40:43;14.00;;;10.65;;
22648;SDS011;11491;41.942;24.220;2023-05-02T01:43:12;12.05;;;10.13;;
22648;SDS011;11491;41.942;24.220;2023-05-02T01:45:40;15.10;;;10.45;;
22648;SDS011;11491;41.942;24.220;2023-05-02T01:48:10;13.40;;;10.35;;
22648;SDS011;11491;41.942;24.220;2023-05-02T01:50:40;14.68;;;12.70;;
22648;SDS011;11491;41.942;24.220;2023-05-02T01:53:08;10.10;;;9.10;;
22648;SDS011;11491;41.942;24.220;2023-05-02T01:55:37;13.18;;;10.30;;
22648;SDS011;11491;41.942;24.220;2023-05-02T01:58:09;13.55;;;10.90;;
22648;SDS011;11491;41.942;24.220;2023-05-02T02:00:38;10.98;;;9.73;;
22648;SDS011;11491;41.942;24.220;2023-05-02T02:03:10;13.27;;;10.63;;
22648;SDS011;11491;41.942;24.220;2023-05-02T02:05:38;16.75;;;13.30;;
22648;SDS011;11491;41.942;24.220;2023-05-02T02:08:06;14.88;;;13.10;;
22648;SDS011;11491;41.942;24.220;2023-05-02T02:10:34;14.93;;;12.75;;
22648;SDS011;11491;41.942;24.220;2023-05-02T02:13:06;13.43;;;10.70;;
22648;SDS011;11491;41.942;24.220;2023-05-02T02:15:41;12.30;;;10.65;;
22648;SDS011;11491;41.942;24.220;2023-05-02T02:18:15;11.82;;;10.52;;
22648;SDS011;11491;41.942;24.220;2023-05-02T02:20:46;12.25;;;10.88;;
22648;SDS011;11491;41.942;24.220;2023-05-02T02:23:15;14.15;;;9.98;;
22648;SDS011;11491;41.942;24.220;2023-05-02T02:25:44;12.27;;;10.65;;
22648;SDS011;11491;41.942;24.220;2023-05-02T02:28:11;13.02;;;10.52;;
22648;SDS011;11491;41.942;24.220;2023-05-02T02:30:38;12.63;;;9.38;;
22648;SDS011;11491;41.942;24.220;2023-05-02T02:33:05;12.40;;;9.02;;
22648;SDS011;11491;41.942;24.220;2023-05-02T02:35:35;15.15;;;9.90;;
22648;SDS011;11491;41.942;24.220;2023-05-02T02:38:08;12.18;;;10.00;;
22648;SDS011;11491;41.942;24.220;2023-05-02T02:40:40;11.77;;;10.07;;
22648;SDS011;11491;41.942;24.220;2023-05-02T02:43:14;14.20;;;9.85;;
22648;SDS011;11491;41.942;24.220;2023-05-02T02:45:52;13.23;;;9.93;;
22648;SDS011;11491;41.942;24.220;2023-05-02T02:48:24;11.68;;;10.13;;
22648;SDS011;11491;41.942;24.220;2023-05-02T02:51:05;15.63;;;9.07;;
22648;SDS011;11491;41.942;24.220;2023-05-02T02:53:39;11.43;;;9.75;;
22648;SDS011;11491;41.942;24.220;2023-05-02T02:56:18;12.23;;;9.30;;
22648;SDS011;11491;41.942;24.220;2023-05-02T02:58:53;11.70;;;9.32;;
22648;SDS011;11491;41.942;24.220;2023-05-02T03:01:23;13.82;;;11.32;;
22648;SDS011;11491;41.942;24.220;2023-05-02T03:03:52;12.23;;;9.52;;
22648;SDS011;11491;41.942;24.220;2023-05-02T03:06:22;13.20;;;9.98;;
22648;SDS011;11491;41.942;24.220;2023-05-02T03:08:50;13.65;;;10.73;;
22648;SDS011;11491;41.942;24.220;2023-05-02T03:11:16;13.30;;;10.75;;
22648;SDS011;11491;41.942;24.220;2023-05-02T03:13:43;17.80;;;14.70;;
22648;SDS011;11491;41.942;24.220;2023-05-02T03:16:26;13.20;;;11.25;;
22648;SDS011;11491;41.942;24.220;2023-05-02T03:18:59;14.75;;;11.95;;
22648;SDS011;11491;41.942;24.220;2023-05-02T03:21:27;13.30;;;11.85;;
22648;SDS011;11491;41.942;24.220;2023-05-02T03:23:55;13.35;;;11.65;;
22648;SDS011;11491;41.942;24.220;2023-05-02T03:26:22;13.55;;;11.23;;
22648;SDS011;11491;41.942;24.220;2023-05-02T03:28:49;13.90;;;11.65;;
22648;SDS011;11491;41.942;24.220;2023-05-02T03:31:16;15.98;;;13.38;;
22648;SDS011;11491;41.942;24.220;2023-05-02T03:33:43;16.80;;;14.00;;
22648;SDS011;11491;41.942;24.220;2023-05-02T03:36:10;18.67;;;14.57;;
22648;SDS011;11491;41.942;24.220;2023-05-02T03:38:38;18.55;;;15.88;;
22648;SDS011;11491;41.942;24.220;2023-05-02T03:41:05;19.33;;;16.50;;
22648;SDS011;11491;41.942;24.220;2023-05-02T03:43:32;50.08;;;35.85;;
22648;SDS011;11491;41.942;24.220;2023-05-02T03:46:03;43.65;;;29.13;;
22648;SDS011;11491;41.942;24.220;2023-05-02T03:48:32;63.22;;;39.03;;
22648;SDS011;11491;41.942;24.220;2023-05-02T03:50:59;38.47;;;29.10;;
22648;SDS011;11491;41.942;24.220;2023-05-02T03:53:26;31.95;;;24.98;;
22648;SDS011;11491;41.942;24.220;2023-05-02T03:55:55;28.50;;;23.15;;
22648;SDS011;11491;41.942;24.220;2023-05-02T03:58:22;32.03;;;24.98;;
22648;SDS011;11491;41.942;24.220;2023-05-02T04:00:49;42.90;;;32.58;;
22648;SDS011;11491;41.942;24.220;2023-05-02T04:03:16;45.40;;;31.75;;
22648;SDS011;11491;41.942;24.220;2023-05-02T04:05:43;44.75;;;36.70;;
22648;SDS011;11491;41.942;24.220;2023-05-02T04:08:10;69.28;;;51.72;;
22648;SDS011;11491;41.942;24.220;2023-05-02T04:10:37;79.20;;;56.03;;
22648;SDS011;11491;41.942;24.220;2023-05-02T04:13:06;79.10;;;56.97;;
22648;SDS011;11491;41.942;24.220;2023-05-02T04:15:32;74.57;;;52.35;;
22648;SDS011;11491;41.942;24.220;2023-05-02T04:17:59;117.32;;;89.95;;
22648;SDS011;11491;41.942;24.220;2023-05-02T04:20:26;91.43;;;62.45;;
22648;SDS011;11491;41.942;24.220;2023-05-02T04:22:53;93.28;;;60.60;;
22648;SDS011;11491;41.942;24.220;2023-05-02T04:25:19;92.28;;;61.53;;
22648;SDS011;11491;41.942;24.220;2023-05-02T04:27:46;113.93;;;73.93;;
22648;SDS011;11491;41.942;24.220;2023-05-02T04:30:14;113.55;;;74.22;;
22648;SDS011;11491;41.942;24.220;2023-05-02T04:32:41;125.18;;;77.40;;
22648;SDS011;11491;41.942;24.220;2023-05-02T04:35:08;117.78;;;73.15;;
22648;SDS011;11491;41.942;24.220;2023-05-02T04:37:35;113.43;;;68.97;;
22648;SDS011;11491;41.942;24.220;2023-05-02T04:40:05;113.55;;;69.22;;
22648;SDS011;11491;41.942;24.220;2023-05-02T04:42:33;115.55;;;71.90;;
22648;SDS011;11491;41.942;24.220;2023-05-02T04:44:59;113.32;;;72.13;;
22648;SDS011;11491;41.942;24.220;2023-05-02T04:47:27;121.38;;;77.10;;
22648;SDS011;11491;41.942;24.220;2023-05-02T04:49:54;114.97;;;73.82;;
22648;SDS011;11491;41.942;24.220;2023-05-02T04:52:21;120.57;;;75.60;;
22648;SDS011;11491;41.942;24.220;2023-05-02T04:54:48;122.90;;;77.13;;
22648;SDS011;11491;41.942;24.220;2023-05-02T04:57:14;101.70;;;66.93;;
22648;SDS011;11491;41.942;24.220;2023-05-02T04:59:41;74.35;;;48.78;;
22648;SDS011;11491;41.942;24.220;2023-05-02T05:02:08;75.03;;;46.90;;
22648;SDS011;11491;41.942;24.220;2023-05-02T05:04:37;74.40;;;49.42;;
22648;SDS011;11491;41.942;24.220;2023-05-02T05:07:04;97.20;;;66.15;;
22648;SDS011;11491;41.942;24.220;2023-05-02T05:09:31;106.53;;;67.20;;
22648;SDS011;11491;41.942;24.220;2023-05-02T05:11:58;119.65;;;83.25;;
22648;SDS011;11491;41.942;24.220;2023-05-02T05:14:26;112.53;;;75.60;;
22648;SDS011;11491;41.942;24.220;2023-05-02T05:16:52;92.18;;;62.22;;
22648;SDS011;11491;41.942;24.220;2023-05-02T05:19:19;76.80;;;48.42;;
22648;SDS011;11491;41.942;24.220;2023-05-02T05:21:47;79.07;;;50.72;;
22648;SDS011;11491;41.942;24.220;2023-05-02T05:24:14;65.45;;;45.22;;
22648;SDS011;11491;41.942;24.220;2023-05-02T05:26:41;67.55;;;45.33;;
22648;SDS011;11491;41.942;24.220;2023-05-02T05:29:07;54.42;;;36.88;;
22648;SDS011;11491;41.942;24.220;2023-05-02T05:31:34;81.85;;;52.03;;
22648;SDS011;11491;41.942;24.220;2023-05-02T05:34:02;34.92;;;24.13;;
22648;SDS011;11491;41.942;24.220;2023-05-02T05:36:29;49.88;;;37.83;;
22648;SDS011;11491;41.942;24.220;2023-05-02T05:38:58;47.10;;;36.25;;
22648;SDS011;11491;41.942;24.220;2023-05-02T05:41:24;49.08;;;34.35;;
22648;SDS011;11491;41.942;24.220;2023-05-02T05:43:51;40.60;;;27.92;;
22648;SDS011;11491;41.942;24.220;2023-05-02T05:46:18;40.55;;;27.75;;
22648;SDS011;11491;41.942;24.220;2023-05-02T05:48:45;25.77;;;19.35;;
22648;SDS011;11491;41.942;24.220;2023-05-02T05:51:12;20.80;;;15.45;;
22648;SDS011;11491;41.942;24.220;2023-05-02T05:53:38;22.50;;;17.27;;
22648;SDS011;11491;41.942;24.220;2023-05-02T05:56:10;27.85;;;20.85;;
22648;SDS011;11491;41.942;24.220;2023-05-02T05:58:37;24.27;;;19.65;;
22648;SDS011;11491;41.942;24.220;2023-05-02T06:01:05;28.20;;;23.13;;
22648;SDS011;11491;41.942;24.220;2023-05-02T06:03:31;41.58;;;32.78;;
22648;SDS011;11491;41.942;24.220;2023-05-02T06:05:58;30.20;;;21.33;;
22648;SDS011;11491;41.942;24.220;2023-05-02T06:08:25;24.30;;;18.73;;
22648;SDS011;11491;41.942;24.220;2023-05-02T06:10:52;25.00;;;20.85;;
22648;SDS011;11491;41.942;24.220;2023-05-02T06:13:20;84.85;;;63.63;;
22648;SDS011;11491;41.942;24.220;2023-05-02T06:15:46;29.20;;;23.13;;
22648;SDS011;11491;41.942;24.220;2023-05-02T06:18:13;28.63;;;23.77;;
22648;SDS011;11491;41.942;24.220;2023-05-02T06:20:40;46.55;;;32.45;;
22648;SDS011;11491;41.942;24.220;2023-05-02T06:23:07;71.43;;;53.15;;
22648;SDS011;11491;41.942;24.220;2023-05-02T06:25:36;58.67;;;47.05;;
22648;SDS011;11491;41.942;24.220;2023-05-02T06:28:03;33.90;;;30.38;;
22648;SDS011;11491;41.942;24.220;2023-05-02T06:30:31;12.50;;;11.30;;
22648;SDS011;11491;41.942;24.220;2023-05-02T06:32:57;11.90;;;10.73;;
22648;SDS011;11491;41.942;24.220;2023-05-02T06:35:24;12.77;;;11.38;;
22648;SDS011;11491;41.942;24.220;2023-05-02T06:37:51;11.07;;;7.85;;
22648;SDS011;11491;41.942;24.220;2023-05-02T06:40:18;13.75;;;11.57;;
22648;SDS011;11491;41.942;24.220;2023-05-02T06:42:44;17.17;;;13.82;;
22648;SDS011;11491;41.942;24.220;2023-05-02T06:45:11;11.25;;;9.95;;
22648;SDS011;11491;41.942;24.220;2023-05-02T06:47:39;12.15;;;10.38;;
22648;SDS011;11491;41.942;24.220;2023-05-02T06:50:07;9.43;;;7.78;;
22648;SDS011;11491;41.942;24.220;2023-05-02T06:52:34;9.90;;;7.30;;
22648;SDS011;11491;41.942;24.220;2023-05-02T06:55:01;11.30;;;8.02;;
22648;SDS011;11491;41.942;24.220;2023-05-02T06:57:27;10.48;;;7.97;;
22648;SDS011;11491;41.942;24.220;2023-05-02T06:59:54;8.20;;;7.30;;
22648;SDS011;11491;41.942;24.220;2023-05-02T07:02:21;7.88;;;6.82;;
22648;SDS011;11491;41.942;24.220;2023-05-02T07:04:49;8.90;;;8.00;;
22648;SDS011;11491;41.942;24.220;2023-05-02T07:07:16;7.07;;;6.03;;
22648;SDS011;11491;41.942;24.220;2023-05-02T07:09:44;7.65;;;5.90;;
22648;SDS011;11491;41.942;24.220;2023-05-02T07:12:11;5.10;;;4.60;;
22648;SDS011;11491;41.942;24.220;2023-05-02T07:14:38;8.18;;;6.70;;
22648;SDS011;11491;41.942;24.220;2023-05-02T07:17:04;43.97;;;24.15;;
22648;SDS011;11491;41.942;24.220;2023-05-02T07:19:31;14.05;;;7.68;;
22648;SDS011;11491;41.942;24.220;2023-05-02T07:21:59;6.15;;;5.50;;
22648;SDS011;11491;41.942;24.220;2023-05-02T07:24:26;8.32;;;6.10;;
22648;SDS011;11491;41.942;24.220;2023-05-02T07:26:53;9.60;;;6.35;;
22648;SDS011;11491;41.942;24.220;2023-05-02T07:29:19;9.88;;;7.30;;
22648;SDS011;11491;41.942;24.220;2023-05-02T07:31:46;8.02;;;6.38;;
22648;SDS011;11491;41.942;24.220;2023-05-02T07:34:13;7.97;;;5.97;;
22648;SDS011;11491;41.942;24.220;2023-05-02T07:36:39;11.98;;;7.28;;
22648;SDS011;11491;41.942;24.220;2023-05-02T07:39:07;7.63;;;6.70;;
22648;SDS011;11491;41.942;24.220;2023-05-02T07:41:34;7.13;;;6.30;;
22648;SDS011;11491;41.942;24.220;2023-05-02T07:44:01;11.80;;;7.90;;
22648;SDS011;11491;41.942;24.220;2023-05-02T07:46:28;10.73;;;7.50;;
22648;SDS011;11491;41.942;24.220;2023-05-02T07:48:55;9.52;;;6.68;;
22648;SDS011;11491;41.942;24.220;2023-05-02T07:51:22;9.50;;;7.80;;
22648;SDS011;11491;41.942;24.220;2023-05-02T07:53:50;7.03;;;6.32;;
22648;SDS011;11491;41.942;24.220;2023-05-02T07:56:21;6.75;;;6.10;;
22648;SDS011;11491;41.942;24.220;2023-05-02T07:58:47;8.75;;;7.88;;
22648;SDS011;11491;41.942;24.220;2023-05-02T08:01:15;13.07;;;7.13;;
22648;SDS011;11491;41.942;24.220;2023-05-02T08:03:42;11.93;;;6.88;;
22648;SDS011;11491;41.942;24.220;2023-05-02T08:06:09;7.82;;;7.00;;
22648;SDS011;11491;41.942;24.220;2023-05-02T08:08:37;10.70;;;8.15;;
22648;SDS011;11491;41.942;24.220;2023-05-02T08:11:04;10.20;;;8.45;;
22648;SDS011;11491;41.942;24.220;2023-05-02T08:13:32;10.77;;;8.05;;
22648;SDS011;11491;41.942;24.220;2023-05-02T08:15:59;12.05;;;10.02;;
22648;SDS011;11491;41.942;24.220;2023-05-02T08:18:26;14.10;;;11.23;;
22648;SDS011;11491;41.942;24.220;2023-05-02T08:20:54;9.23;;;7.55;;
22648;SDS011;11491;41.942;24.220;2023-05-02T08:23:22;14.65;;;12.73;;
22648;SDS011;11491;41.942;24.220;2023-05-02T08:25:49;10.68;;;8.13;;
22648;SDS011;11491;41.942;24.220;2023-05-02T08:28:16;14.95;;;9.48;;
22648;SDS011;11491;41.942;24.220;2023-05-02T08:30:44;13.20;;;8.18;;
22648;SDS011;11491;41.942;24.220;2023-05-02T08:33:11;9.10;;;7.88;;
22648;SDS011;11491;41.942;24.220;2023-05-02T08:35:38;12.00;;;8.48;;
22648;SDS011;11491;41.942;24.220;2023-05-02T08:38:05;12.73;;;7.70;;
22648;SDS011;11491;41.942;24.220;2023-05-02T08:40:32;12.35;;;9.85;;
22648;SDS011;11491;41.942;24.220;2023-05-02T08:43:01;15.07;;;8.27;;
22648;SDS011;11491;41.942;24.220;2023-05-02T08:45:29;9.45;;;8.27;;
22648;SDS011;11491;41.942;24.220;2023-05-02T08:48:03;17.03;;;13.40;;
22648;SDS011;11491;41.942;24.220;2023-05-02T08:50:32;11.38;;;10.15;;
22648;SDS011;11491;41.942;24.220;2023-05-02T08:53:03;15.35;;;11.50;;
22648;SDS011;11491;41.942;24.220;2023-05-02T08:55:30;10.10;;;8.15;;
22648;SDS011;11491;41.942;24.220;2023-05-02T08:57:59;8.98;;;8.07;;
22648;SDS011;11491;41.942;24.220;2023-05-02T09:00:28;8.90;;;7.97;;
22648;SDS011;11491;41.942;24.220;2023-05-02T09:02:58;9.90;;;7.80;;
22648;SDS011;11491;41.942;24.220;2023-05-02T09:05:34;9.60;;;8.40;;
22648;SDS011;11491;41.942;24.220;2023-05-02T09:08:06;12.93;;;11.63;;
22648;SDS011;11491;41.942;24.220;2023-05-02T09:10:33;14.52;;;10.32;;
22648;SDS011;11491;41.942;24.220;2023-05-02T09:15:55;9.77;;;8.77;;
22648;SDS011;11491;41.942;24.220;2023-05-02T09:18:24;11.88;;;10.68;;
22648;SDS011;11491;41.942;24.220;2023-05-02T09:20:54;11.05;;;10.05;;
22648;SDS011;11491;41.942;24.220;2023-05-02T09:23:21;10.02;;;9.07;;
22648;SDS011;11491;41.942;24.220;2023-05-02T09:25:58;13.55;;;9.88;;
22648;SDS011;11491;41.942;24.220;2023-05-02T09:28:36;11.13;;;10.02;;
22648;SDS011;11491;41.942;24.220;2023-05-02T09:31:05;10.98;;;8.93;;
22648;SDS011;11491;41.942;24.220;2023-05-02T09:33:35;11.57;;;9.30;;
22648;SDS011;11491;41.942;24.220;2023-05-02T09:36:03;11.00;;;9.90;;
22648;SDS011;11491;41.942;24.220;2023-05-02T09:38:31;12.43;;;10.13;;
22648;SDS011;11491;41.942;24.220;2023-05-02T09:40:58;13.05;;;10.40;;
22648;SDS011;11491;41.942;24.220;2023-05-02T09:43:27;13.93;;;10.77;;
22648;SDS011;11491;41.942;24.220;2023-05-02T09:45:58;13.20;;;11.73;;
22648;SDS011;11491;41.942;24.220;2023-05-02T09:48:26;13.85;;;10.35;;
22648;SDS011;11491;41.942;24.220;2023-05-02T09:50:55;11.23;;;9.63;;
22648;SDS011;11491;41.942;24.220;2023-05-02T09:53:23;14.30;;;12.90;;
22648;SDS011;11491;41.942;24.220;2023-05-02T09:56:02;23.48;;;13.60;;
22648;SDS011;11491;41.942;24.220;2023-05-02T09:58:29;14.35;;;12.82;;
22648;SDS011;11491;41.942;24.220;2023-05-02T10:00:56;14.90;;;12.00;;
22648;SDS011;11491;41.942;24.220;2023-05-02T10:03:24;15.50;;;12.20;;
22648;SDS011;11491;41.942;24.220;2023-05-02T10:05:52;14.90;;;12.88;;
22648;SDS011;11491;41.942;24.220;2023-05-02T10:08:21;12.23;;;10.93;;
22648;SDS011;11491;41.942;24.220;2023-05-02T10:10:51;22.63;;;17.45;;
22648;SDS011;11491;41.942;24.220;2023-05-02T10:13:19;18.33;;;13.48;;
22648;SDS011;11491;41.942;24.220;2023-05-02T10:15:49;17.90;;;13.95;;
22648;SDS011;11491;41.942;24.220;2023-05-02T10:18:21;13.65;;;12.25;;
22648;SDS011;11491;41.942;24.220;2023-05-02T10:20:55;19.40;;;15.23;;
22648;SDS011;11491;41.942;24.220;2023-05-02T10:23:28;20.38;;;14.05;;
22648;SDS011;11491;41.942;24.220;2023-05-02T10:25:56;15.65;;;13.95;;
22648;SDS011;11491;41.942;24.220;2023-05-02T10:28:24;20.83;;;17.75;;
22648;SDS011;11491;41.942;24.220;2023-05-02T10:30:52;20.58;;;15.40;;
22648;SDS011;11491;41.942;24.220;2023-05-02T10:33:20;20.52;;;18.33;;
22648;SDS011;11491;41.942;24.220;2023-05-02T10:35:48;19.05;;;16.90;;
22648;SDS011;11491;41.942;24.220;2023-05-02T10:38:16;16.38;;;14.05;;
22648;SDS011;11491;41.942;24.220;2023-05-02T10:40:50;19.63;;;14.57;;
22648;SDS011;11491;41.942;24.220;2023-05-02T10:43:22;19.42;;;17.17;;
22648;SDS011;11491;41.942;24.220;2023-05-02T10:45:51;18.90;;;14.48;;
22648;SDS011;11491;41.942;24.220;2023-05-02T10:48:19;21.15;;;18.42;;
22648;SDS011;11491;41.942;24.220;2023-05-02T10:50:49;20.65;;;15.45;;
22648;SDS011;11491;41.942;24.220;2023-05-02T10:53:24;15.73;;;13.60;;
22648;SDS011;11491;41.942;24.220;2023-05-02T10:56:12;15.27;;;13.65;;
22648;SDS011;11491;41.942;24.220;2023-05-02T10:58:40;16.48;;;14.05;;
22648;SDS011;11491;41.942;24.220;2023-05-02T11:04:02;46.78;;;29.65;;
22648;SDS011;11491;41.942;24.220;2023-05-02T11:06:30;22.02;;;15.73;;
22648;SDS011;11491;41.942;24.220;2023-05-02T11:11:59;19.40;;;14.82;;
22648;SDS011;11491;41.942;24.220;2023-05-02T11:14:44;10.18;;;7.82;;
22648;SDS011;11491;41.942;24.220;2023-05-02T11:17:15;14.98;;;10.10;;
22648;SDS011;11491;41.942;24.220;2023-05-02T11:22:51;17.00;;;9.73;;
22648;SDS011;11491;41.942;24.220;2023-05-02T11:25:31;9.10;;;5.40;;
22648;SDS011;11491;41.942;24.220;2023-05-02T11:28:01;11.57;;;7.07;;
22648;SDS011;11491;41.942;24.220;2023-05-02T11:30:42;9.63;;;5.90;;
22648;SDS011;11491;41.942;24.220;2023-05-02T11:33:15;7.00;;;5.57;;
22648;SDS011;11491;41.942;24.220;2023-05-02T11:35:44;8.68;;;5.72;;
22648;SDS011;11491;41.942;24.220;2023-05-02T11:38:14;8.50;;;4.45;;
22648;SDS011;11491;41.942;24.220;2023-05-02T11:40:49;7.95;;;6.10;;
22648;SDS011;11491;41.942;24.220;2023-05-02T11:43:22;8.23;;;6.18;;
22648;SDS011;11491;41.942;24.220;2023-05-02T11:45:50;5.10;;;3.92;;
22648;SDS011;11491;41.942;24.220;2023-05-02T11:48:18;8.80;;;5.50;;
22648;SDS011;11491;41.942;24.220;2023-05-02T11:50:47;6.53;;;3.40;;
22648;SDS011;11491;41.942;24.220;2023-05-02T11:53:15;7.13;;;3.45;;
22648;SDS011;11491;41.942;24.220;2023-05-02T11:55:43;8.35;;;5.35;;
22648;SDS011;11491;41.942;24.220;2023-05-02T11:58:12;12.57;;;6.70;;
22648;SDS011;11491;41.942;24.220;2023-05-02T12:00:41;18.60;;;11.18;;
22648;SDS011;11491;41.942;24.220;2023-05-02T12:03:18;4.57;;;3.00;;
22648;SDS011;11491;41.942;24.220;2023-05-02T12:05:53;7.30;;;4.05;;
22648;SDS011;11491;41.942;24.220;2023-05-02T12:08:21;65.05;;;39.35;;
22648;SDS011;11491;41.942;24.220;2023-05-02T12:10:50;20.65;;;12.27;;
22648;SDS011;11491;41.942;24.220;2023-05-02T12:13:19;6.53;;;3.97;;
22648;SDS011;11491;41.942;24.220;2023-05-02T12:15:48;7.88;;;4.47;;
22648;SDS011;11491;41.942;24.220;2023-05-02T12:18:17;6.93;;;3.42;;
22648;SDS011;11491;41.942;24.220;2023-05-02T12:20:45;4.40;;;3.17;;
22648;SDS011;11491;41.942;24.220;2023-05-02T12:23:12;7.22;;;5.60;;
22648;SDS011;11491;41.942;24.220;2023-05-02T12:25:39;3.53;;;1.95;;
22648;SDS011;11491;41.942;24.220;2023-05-02T12:28:07;11.23;;;7.47;;
22648;SDS011;11491;41.942;24.220;2023-05-02T12:30:41;9.63;;;6.10;;
22648;SDS011;11491;41.942;24.220;2023-05-02T12:33:14;10.63;;;3.60;;
22648;SDS011;11491;41.942;24.220;2023-05-02T12:35:41;7.90;;;3.40;;
22648;SDS011;11491;41.942;24.220;2023-05-02T12:38:10;6.00;;;3.58;;
22648;SDS011;11491;41.942;24.220;2023-05-02T12:40:51;13.30;;;8.85;;
22648;SDS011;11491;41.942;24.220;2023-05-02T12:43:24;3.92;;;2.80;;
22648;SDS011;11491;41.942;24.220;2023-05-02T12:46:07;6.38;;;4.97;;
22648;SDS011;11491;41.942;24.220;2023-05-02T12:48:37;5.50;;;4.55;;
22648;SDS011;11491;41.942;24.220;2023-05-02T12:51:04;11.43;;;7.05;;
22648;SDS011;11491;41.942;24.220;2023-05-02T12:53:38;7.70;;;4.63;;
22648;SDS011;11491;41.942;24.220;2023-05-02T12:56:08;7.50;;;4.20;;
22648;SDS011;11491;41.942;24.220;2023-05-02T12:58:39;6.57;;;4.90;;
22648;SDS011;11491;41.942;24.220;2023-05-02T13:01:07;4.65;;;2.65;;
22648;SDS011;11491;41.942;24.220;2023-05-02T13:03:34;4.00;;;2.30;;
22648;SDS011;11491;41.942;24.220;2023-05-02T13:06:04;11.32;;;4.40;;
22648;SDS011;11491;41.942;24.220;2023-05-02T13:08:31;5.57;;;4.05;;
22648;SDS011;11491;41.942;24.220;2023-05-02T13:10:58;7.97;;;3.85;;
22648;SDS011;11491;41.942;24.220;2023-05-02T13:13:25;7.53;;;5.25;;
22648;SDS011;11491;41.942;24.220;2023-05-02T13:15:52;9.65;;;5.35;;
22648;SDS011;11491;41.942;24.220;2023-05-02T13:18:19;3.58;;;2.25;;
22648;SDS011;11491;41.942;24.220;2023-05-02T13:20:45;5.50;;;2.78;;
22648;SDS011;11491;41.942;24.220;2023-05-02T13:23:14;11.05;;;4.05;;
22648;SDS011;11491;41.942;24.220;2023-05-02T13:25:41;4.55;;;3.13;;
22648;SDS011;11491;41.942;24.220;2023-05-02T13:28:08;11.35;;;6.75;;
22648;SDS011;11491;41.942;24.220;2023-05-02T13:30:35;18.35;;;14.70;;
22648;SDS011;11491;41.942;24.220;2023-05-02T13:33:04;10.13;;;5.97;;
22648;SDS011;11491;41.942;24.220;2023-05-02T13:35:31;11.13;;;7.32;;
22648;SDS011;11491;41.942;24.220;2023-05-02T13:37:58;6.30;;;5.65;;
22648;SDS011;11491;41.942;24.220;2023-05-02T13:40:26;6.32;;;2.85;;
22648;SDS011;11491;41.942;24.220;2023-05-02T13:42:53;3.42;;;2.72;;
22648;SDS011;11491;41.942;24.220;2023-05-02T13:45:20;4.88;;;2.80;;
22648;SDS011;11491;41.942;24.220;2023-05-02T13:47:47;4.43;;;3.10;;
22648;SDS011;11491;41.942;24.220;2023-05-02T13:50:13;8.35;;;3.08;;
22648;SDS011;11491;41.942;24.220;2023-05-02T13:52:40;5.43;;;3.33;;
22648;SDS011;11491;41.942;24.220;2023-05-02T13:55:07;6.85;;;5.18;;
22648;SDS011;11491;41.942;24.220;2023-05-02T13:57:36;9.82;;;3.67;;
22648;SDS011;11491;41.942;24.220;2023-05-02T14:00:03;7.80;;;2.72;;
22648;SDS011;11491;41.942;24.220;2023-05-02T14:02:33;5.35;;;2.50;;
22648;SDS011;11491;41.942;24.220;2023-05-02T14:05:00;4.38;;;2.72;;
22648;SDS011;11491;41.942;24.220;2023-05-02T14:07:27;2.78;;;1.85;;
22648;SDS011;11491;41.942;24.220;2023-05-02T14:09:54;10.38;;;4.45;;
22648;SDS011;11491;41.942;24.220;2023-05-02T14:12:21;11.50;;;6.97;;
22648;SDS011;11491;41.942;24.220;2023-05-02T14:14:49;9.05;;;3.92;;
22648;SDS011;11491;41.942;24.220;2023-05-02T14:17:16;7.10;;;3.88;;
22648;SDS011;11491;41.942;24.220;2023-05-02T14:19:43;6.72;;;3.83;;
22648;SDS011;11491;41.942;24.220;2023-05-02T14:22:09;10.48;;;6.18;;
22648;SDS011;11491;41.942;24.220;2023-05-02T14:24:36;14.77;;;8.30;;
22648;SDS011;11491;41.942;24.220;2023-05-02T14:27:03;13.93;;;6.63;;
22648;SDS011;11491;41.942;24.220;2023-05-02T14:29:31;11.80;;;5.63;;
22648;SDS011;11491;41.942;24.220;2023-05-02T14:31:59;6.68;;;4.38;;
22648;SDS011;11491;41.942;24.220;2023-05-02T14:34:26;21.98;;;17.00;;
22648;SDS011;11491;41.942;24.220;2023-05-02T14:36:53;5.93;;;3.92;;
22648;SDS011;11491;41.942;24.220;2023-05-02T14:39:20;5.22;;;3.60;;